createdAt,value
2018-08-04T00:00:09.422Z,27.30
2018-08-04T00:00:41.422Z,27.30
2018-08-04T00:01:13.475Z,27.30
2018-08-04T00:01:45.493Z,27.20
2018-08-04T00:02:17.493Z,27.20
2018-08-04T00:02:49.499Z,27.20
2018-08-04T00:03:21.508Z,27.20
2018-08-04T00:03:53.527Z,27.10
2018-08-04T00:04:25.542Z,27.00
2018-08-04T00:04:57.560Z,27.00
2018-08-04T00:05:29.579Z,27.00
2018-08-04T00:06:01.652Z,27.00
2018-08-04T00:06:33.651Z,27.00
2018-08-04T00:07:05.689Z,27.00
2018-08-04T00:07:37.694Z,27.00
2018-08-04T00:08:09.702Z,26.90
2018-08-04T00:08:41.714Z,27.00
2018-08-04T00:09:13.735Z,26.90
2018-08-04T00:09:45.739Z,27.00
2018-08-04T00:10:17.771Z,27.00
2018-08-04T00:10:49.783Z,27.00
2018-08-04T00:11:21.840Z,27.00
2018-08-04T00:11:53.935Z,27.00
2018-08-04T00:12:25.929Z,27.00
2018-08-04T00:12:57.946Z,27.00
2018-08-04T00:13:29.953Z,27.00
2018-08-04T00:14:01.972Z,27.10
2018-08-04T00:14:33.995Z,27.00
2018-08-04T00:15:06.006Z,27.00
2018-08-04T00:15:38.038Z,27.00
2018-08-04T00:16:10.038Z,27.00
2018-08-04T00:16:42.050Z,26.90
2018-08-04T00:17:14.063Z,26.90
2018-08-04T00:17:46.077Z,26.80
2018-08-04T00:18:18.096Z,26.80
2018-08-04T00:18:50.119Z,26.80
2018-08-04T00:19:22.132Z,26.80
2018-08-04T00:19:54.138Z,26.80
2018-08-04T00:20:26.161Z,26.80
2018-08-04T00:20:58.206Z,26.80
2018-08-04T00:21:30.216Z,26.80
2018-08-04T00:22:02.226Z,26.90
2018-08-04T00:22:34.245Z,26.80
2018-08-04T00:23:06.262Z,26.80
2018-08-04T00:23:38.254Z,26.80
2018-08-04T00:24:10.267Z,26.90
2018-08-04T00:24:42.296Z,26.90
2018-08-04T00:25:14.302Z,26.90
2018-08-04T00:25:46.353Z,27.00
2018-08-04T00:26:18.400Z,27.10
2018-08-04T00:26:50.414Z,27.20
2018-08-04T00:27:22.426Z,27.20
2018-08-04T00:28:26.713Z,27.30
2018-08-04T00:28:58.736Z,27.20
2018-08-04T00:29:30.754Z,27.20
2018-08-04T00:30:02.765Z,27.10
2018-08-04T00:30:34.771Z,27.10
2018-08-04T00:31:06.802Z,27.00
2018-08-04T00:31:38.848Z,27.00
2018-08-04T00:32:10.858Z,27.00
2018-08-04T00:32:42.869Z,26.90
2018-08-04T00:33:14.868Z,26.90
2018-08-04T00:33:46.921Z,26.90
2018-08-04T00:34:18.937Z,26.90
2018-08-04T00:34:50.983Z,26.90
2018-08-04T00:35:22.991Z,27.00
2018-08-04T00:35:54.994Z,27.10
2018-08-04T00:36:27.009Z,27.20
2018-08-04T00:36:59.010Z,27.30
2018-08-04T00:37:31.031Z,27.30
2018-08-04T00:38:03.045Z,27.40
2018-08-04T00:38:35.058Z,27.40
2018-08-04T00:39:07.071Z,27.50
2018-08-04T00:39:39.082Z,27.50
2018-08-04T00:40:11.107Z,27.60
2018-08-04T00:40:43.114Z,27.60
2018-08-04T00:41:15.160Z,27.60
2018-08-04T00:41:47.161Z,27.50
2018-08-04T00:42:19.179Z,27.40
2018-08-04T00:42:51.200Z,27.30
2018-08-04T00:43:23.215Z,27.30
2018-08-04T00:43:55.240Z,27.30
2018-08-04T00:44:27.247Z,27.20
2018-08-04T00:44:59.262Z,27.10
2018-08-04T00:45:31.282Z,27.10
2018-08-04T00:46:03.308Z,27.10
2018-08-04T00:46:35.312Z,27.00
2018-08-04T00:47:07.334Z,27.00
2018-08-04T00:47:39.350Z,26.90
2018-08-04T00:48:11.358Z,26.90
2018-08-04T00:48:43.445Z,26.90
2018-08-04T00:49:15.462Z,26.90
2018-08-04T00:49:47.474Z,26.90
2018-08-04T00:50:19.497Z,26.90
2018-08-04T00:50:51.510Z,26.90
2018-08-04T00:51:23.530Z,26.90
2018-08-04T00:51:55.534Z,26.90
2018-08-04T00:52:27.540Z,26.90
2018-08-04T00:52:59.569Z,26.80
2018-08-04T00:53:31.578Z,26.80
2018-08-04T00:54:03.591Z,26.90
2018-08-04T00:54:35.602Z,26.90
2018-08-04T00:55:07.656Z,26.90
2018-08-04T00:55:39.670Z,26.90
2018-08-04T00:56:11.683Z,26.90
2018-08-04T00:56:43.695Z,26.90
2018-08-04T00:57:15.694Z,27.00
2018-08-04T00:57:47.710Z,27.10
2018-08-04T00:58:19.750Z,27.20
2018-08-04T00:58:51.762Z,27.20
2018-08-04T00:59:23.759Z,27.30
2018-08-04T00:59:55.790Z,27.30
2018-08-04T01:00:27.798Z,27.40
2018-08-04T01:00:59.814Z,27.40
2018-08-04T01:01:31.843Z,27.40
2018-08-04T01:02:03.885Z,27.30
2018-08-04T01:02:35.904Z,27.30
2018-08-04T01:03:07.920Z,27.40
2018-08-04T01:03:39.943Z,27.40
2018-08-04T01:04:11.938Z,27.50
2018-08-04T01:04:43.955Z,27.50
2018-08-04T01:05:15.974Z,27.50
2018-08-04T01:05:47.972Z,27.40
2018-08-04T01:06:19.993Z,27.30
2018-08-04T01:06:51.996Z,27.20
2018-08-04T01:07:24.014Z,27.10
2018-08-04T01:07:56.076Z,27.10
2018-08-04T01:08:28.038Z,27.00
2018-08-04T01:09:00.056Z,26.90
2018-08-04T01:09:32.062Z,26.90
2018-08-04T01:10:04.084Z,26.90
2018-08-04T01:10:36.105Z,26.90
2018-08-04T01:11:08.117Z,26.80
2018-08-04T01:11:40.129Z,26.80
2018-08-04T01:12:12.150Z,26.80
2018-08-04T01:12:44.158Z,26.80
2018-08-04T01:13:16.174Z,26.80
2018-08-04T01:13:48.229Z,26.80
2018-08-04T01:14:20.189Z,26.80
2018-08-04T01:14:52.190Z,26.80
2018-08-04T01:15:24.201Z,26.70
2018-08-04T01:15:56.211Z,26.80
2018-08-04T01:16:28.230Z,26.80
2018-08-04T01:17:00.259Z,26.80
2018-08-04T01:17:32.272Z,26.80
2018-08-04T01:18:04.282Z,26.90
2018-08-04T01:18:36.293Z,26.90
2018-08-04T01:19:08.308Z,26.90
2018-08-04T01:19:40.319Z,26.90
2018-08-04T01:20:12.334Z,27.00
2018-08-04T01:20:44.376Z,26.90
2018-08-04T01:21:16.358Z,27.00
2018-08-04T01:21:48.366Z,26.90
2018-08-04T01:22:20.382Z,26.90
2018-08-04T01:22:52.785Z,26.90
2018-08-04T01:23:24.797Z,26.90
2018-08-04T01:23:56.848Z,26.90
2018-08-04T01:24:28.902Z,26.90
2018-08-04T01:25:00.919Z,26.90
2018-08-04T01:25:32.928Z,27.00
2018-08-04T01:26:04.939Z,27.10
2018-08-04T01:26:36.949Z,27.20
2018-08-04T01:27:08.960Z,27.20
2018-08-04T01:27:40.975Z,27.20
2018-08-04T01:28:12.977Z,27.20
2018-08-04T01:28:44.991Z,27.20
2018-08-04T01:29:16.997Z,27.10
2018-08-04T01:29:49.014Z,27.10
2018-08-04T01:30:21.025Z,27.10
2018-08-04T01:30:53.037Z,27.00
2018-08-04T01:31:25.046Z,26.90
2018-08-04T01:31:57.059Z,26.90
2018-08-04T01:32:29.064Z,26.80
2018-08-04T01:33:01.081Z,26.80
2018-08-04T01:33:33.085Z,26.70
2018-08-04T01:34:05.132Z,26.70
2018-08-04T01:34:37.133Z,26.70
2018-08-04T01:35:09.142Z,26.70
2018-08-04T01:35:41.151Z,26.60
2018-08-04T01:36:13.161Z,26.60
2018-08-04T01:36:45.172Z,26.70
2018-08-04T01:37:17.183Z,26.70
2018-08-04T01:37:49.190Z,26.70
2018-08-04T01:38:21.205Z,26.70
2018-08-04T01:38:53.209Z,26.70
2018-08-04T01:39:25.232Z,26.90
2018-08-04T01:39:57.239Z,26.90
2018-08-04T01:40:29.242Z,27.00
2018-08-04T01:41:01.263Z,27.10
2018-08-04T01:41:33.260Z,27.00
2018-08-04T01:42:05.354Z,27.00
2018-08-04T01:42:37.377Z,27.00
2018-08-04T01:43:09.382Z,27.00
2018-08-04T01:43:41.402Z,27.10
2018-08-04T01:44:13.417Z,27.20
2018-08-04T01:44:45.439Z,27.20
2018-08-04T01:45:17.469Z,27.20
2018-08-04T01:45:49.468Z,27.30
2018-08-04T01:46:21.475Z,27.30
2018-08-04T01:46:53.499Z,27.30
2018-08-04T01:47:25.515Z,27.10
2018-08-04T01:47:57.509Z,27.00
2018-08-04T01:48:29.544Z,26.90
2018-08-04T01:49:01.559Z,26.90
2018-08-04T01:49:33.575Z,26.90
2018-08-04T01:50:05.590Z,26.80
2018-08-04T01:50:37.599Z,26.80
2018-08-04T01:51:09.620Z,26.90
2018-08-04T01:51:41.634Z,26.90
2018-08-04T01:52:13.721Z,26.90
2018-08-04T01:52:45.738Z,26.80
2018-08-04T01:53:17.763Z,26.80
2018-08-04T01:53:49.770Z,26.80
2018-08-04T01:54:21.786Z,26.70
2018-08-04T01:54:53.786Z,26.70
2018-08-04T01:55:25.806Z,26.60
2018-08-04T01:55:57.819Z,26.60
2018-08-04T01:56:29.826Z,26.60
2018-08-04T01:57:01.834Z,26.50
2018-08-04T01:57:33.849Z,26.50
2018-08-04T01:58:05.860Z,26.50
2018-08-04T01:58:37.873Z,26.50
2018-08-04T01:59:09.956Z,26.50
2018-08-04T01:59:41.898Z,26.50
2018-08-04T02:00:13.912Z,26.60
2018-08-04T02:00:45.928Z,26.60
2018-08-04T02:01:17.935Z,26.60
2018-08-04T02:01:49.972Z,26.60
2018-08-04T02:02:21.982Z,26.60
2018-08-04T02:02:54.001Z,26.60
2018-08-04T02:03:26.008Z,26.70
2018-08-04T02:03:58.031Z,26.70
2018-08-04T02:04:30.042Z,26.70
2018-08-04T02:05:02.056Z,26.70
2018-08-04T02:05:34.067Z,26.70
2018-08-04T02:06:06.078Z,26.70
2018-08-04T02:06:38.099Z,26.70
2018-08-04T02:07:10.147Z,26.70
2018-08-04T02:07:42.123Z,26.80
2018-08-04T02:08:14.125Z,26.90
2018-08-04T02:08:46.140Z,26.90
2018-08-04T02:09:18.138Z,27.00
2018-08-04T02:09:50.154Z,27.10
2018-08-04T02:10:22.169Z,27.20
2018-08-04T02:10:54.176Z,27.20
2018-08-04T02:11:26.194Z,27.20
2018-08-04T02:12:30.487Z,27.20
2018-08-04T02:13:02.495Z,27.20
2018-08-04T02:13:34.560Z,27.30
2018-08-04T02:14:06.572Z,27.30
2018-08-04T02:14:38.590Z,27.30
2018-08-04T02:15:10.605Z,27.30
2018-08-04T02:15:42.631Z,27.30
2018-08-04T02:16:14.671Z,27.30
2018-08-04T02:16:46.673Z,27.30
2018-08-04T02:17:18.694Z,27.30
2018-08-04T02:17:50.708Z,27.30
2018-08-04T02:18:22.719Z,27.40
2018-08-04T02:18:54.727Z,27.40
2018-08-04T02:19:26.753Z,27.40
2018-08-04T02:19:58.758Z,27.30
2018-08-04T02:20:30.767Z,27.30
2018-08-04T02:21:02.779Z,27.20
2018-08-04T02:21:34.802Z,27.10
2018-08-04T02:22:06.857Z,27.00
2018-08-04T02:22:38.882Z,27.00
2018-08-04T02:23:43.178Z,26.90
2018-08-04T02:24:15.192Z,26.90
2018-08-04T02:24:47.201Z,26.80
2018-08-04T02:25:19.207Z,26.70
2018-08-04T02:25:51.215Z,26.70
2018-08-04T02:26:23.234Z,26.60
2018-08-04T02:26:55.242Z,26.60
2018-08-04T02:27:27.251Z,26.60
2018-08-04T02:27:59.267Z,26.60
2018-08-04T02:28:31.265Z,26.60
2018-08-04T02:29:03.279Z,26.60
2018-08-04T02:29:35.296Z,26.60
2018-08-04T02:30:07.321Z,26.70
2018-08-04T02:30:39.336Z,26.80
2018-08-04T02:31:11.343Z,26.80
2018-08-04T02:31:43.359Z,26.90
2018-08-04T02:32:15.377Z,27.00
2018-08-04T02:32:47.423Z,27.00
2018-08-04T02:33:19.439Z,27.00
2018-08-04T02:33:51.509Z,27.10
2018-08-04T02:34:23.541Z,27.10
2018-08-04T02:34:55.551Z,27.10
2018-08-04T02:35:27.567Z,27.10
2018-08-04T02:35:59.596Z,27.00
2018-08-04T02:36:31.591Z,26.90
2018-08-04T02:37:03.611Z,26.90
2018-08-04T02:37:35.623Z,26.90
2018-08-04T02:38:07.631Z,26.80
2018-08-04T02:38:39.666Z,26.80
2018-08-04T02:39:11.671Z,26.80
2018-08-04T02:39:43.704Z,26.70
2018-08-04T02:40:15.746Z,26.70
2018-08-04T02:40:47.770Z,26.60
2018-08-04T02:41:19.809Z,26.50
2018-08-04T02:41:51.806Z,26.50
2018-08-04T02:42:23.843Z,26.50
2018-08-04T02:42:55.865Z,26.50
2018-08-04T02:43:27.884Z,26.50
2018-08-04T02:43:59.910Z,26.50
2018-08-04T02:44:31.922Z,26.60
2018-08-04T02:45:03.942Z,26.70
2018-08-04T02:45:35.955Z,26.80
2018-08-04T02:46:08.018Z,26.90
2018-08-04T02:46:40.032Z,26.90
2018-08-04T02:47:12.038Z,26.90
2018-08-04T02:47:44.055Z,26.90
2018-08-04T02:48:16.085Z,26.90
2018-08-04T02:48:48.089Z,27.00
2018-08-04T02:49:20.138Z,27.10
2018-08-04T02:49:52.149Z,27.10
2018-08-04T02:50:24.183Z,27.10
2018-08-04T02:50:56.183Z,27.20
2018-08-04T02:51:28.209Z,27.20
2018-08-04T02:52:00.234Z,27.20
2018-08-04T02:52:32.290Z,27.10
2018-08-04T02:53:04.309Z,27.00
2018-08-04T02:53:36.317Z,27.00
2018-08-04T02:54:08.350Z,26.90
2018-08-04T02:54:40.392Z,26.90
2018-08-04T02:55:12.404Z,26.80
2018-08-04T02:55:44.415Z,26.80
2018-08-04T02:56:16.420Z,26.70
2018-08-04T02:56:48.434Z,26.70
2018-08-04T02:57:20.471Z,26.60
2018-08-04T02:57:52.455Z,26.60
2018-08-04T02:58:24.474Z,26.60
2018-08-04T02:58:56.495Z,26.60
2018-08-04T02:59:28.569Z,26.60
2018-08-04T03:00:00.547Z,26.50
2018-08-04T03:00:32.562Z,26.50
2018-08-04T03:01:04.579Z,26.40
2018-08-04T03:01:36.611Z,26.40
2018-08-04T03:02:08.624Z,26.40
2018-08-04T03:02:40.647Z,26.30
2018-08-04T03:03:12.662Z,26.30
2018-08-04T03:03:44.761Z,26.30
2018-08-04T03:04:16.710Z,26.30
2018-08-04T03:04:48.726Z,26.30
2018-08-04T03:05:20.750Z,26.30
2018-08-04T03:05:52.776Z,26.30
2018-08-04T03:06:24.805Z,26.30
2018-08-04T03:06:56.821Z,26.30
2018-08-04T03:07:28.834Z,26.30
2018-08-04T03:08:00.867Z,26.30
2018-08-04T03:08:32.948Z,26.30
2018-08-04T03:09:04.890Z,26.30
2018-08-04T03:09:36.908Z,26.30
2018-08-04T03:10:08.910Z,26.30
2018-08-04T03:10:40.931Z,26.30
2018-08-04T03:11:12.956Z,26.30
2018-08-04T03:11:44.952Z,26.30
2018-08-04T03:12:16.962Z,26.20
2018-08-04T03:12:48.973Z,26.20
2018-08-04T03:13:20.984Z,26.20
2018-08-04T03:13:53.018Z,26.30
2018-08-04T03:14:25.036Z,26.30
2018-08-04T03:14:57.096Z,26.30
2018-08-04T03:15:29.110Z,26.30
2018-08-04T03:16:01.140Z,26.20
2018-08-04T03:16:33.151Z,26.30
2018-08-04T03:17:05.170Z,26.20
2018-08-04T03:17:37.191Z,26.20
2018-08-04T03:18:09.206Z,26.20
2018-08-04T03:18:41.212Z,26.20
2018-08-04T03:19:13.256Z,26.20
2018-08-04T03:19:45.264Z,26.20
2018-08-04T03:20:17.306Z,26.30
2018-08-04T03:20:49.317Z,26.30
2018-08-04T03:21:21.355Z,26.30
2018-08-04T03:21:53.366Z,26.20
2018-08-04T03:22:25.371Z,26.30
2018-08-04T03:22:57.397Z,26.30
2018-08-04T03:23:29.435Z,26.30
2018-08-04T03:24:01.505Z,26.40
2018-08-04T03:24:33.531Z,26.40
2018-08-04T03:25:05.536Z,26.40
2018-08-04T03:25:37.561Z,26.40
2018-08-04T03:26:09.564Z,26.50
2018-08-04T03:26:41.614Z,26.50
2018-08-04T03:27:13.614Z,26.50
2018-08-04T03:27:45.652Z,26.50
2018-08-04T03:28:17.683Z,26.50
2018-08-04T03:28:49.734Z,26.50
2018-08-04T03:29:21.738Z,26.50
2018-08-04T03:29:53.759Z,26.50
2018-08-04T03:30:25.775Z,26.50
2018-08-04T03:30:57.792Z,26.40
2018-08-04T03:31:29.830Z,26.50
2018-08-04T03:32:01.940Z,26.50
2018-08-04T03:32:33.903Z,26.60
2018-08-04T03:33:05.906Z,26.70
2018-08-04T03:33:37.923Z,26.70
2018-08-04T03:34:09.978Z,26.70
2018-08-04T03:34:41.999Z,26.70
2018-08-04T03:35:14.031Z,26.60
2018-08-04T03:35:46.043Z,26.60
2018-08-04T03:36:18.071Z,26.60
2018-08-04T03:36:50.066Z,26.60
2018-08-04T03:37:22.087Z,26.60
2018-08-04T03:37:54.110Z,26.60
2018-08-04T03:38:26.154Z,26.60
2018-08-04T03:38:58.163Z,26.50
2018-08-04T03:39:30.169Z,26.50
2018-08-04T03:40:02.178Z,26.40
2018-08-04T03:40:34.205Z,26.30
2018-08-04T03:41:06.201Z,26.30
2018-08-04T03:41:38.234Z,26.20
2018-08-04T03:42:10.248Z,26.20
2018-08-04T03:42:42.382Z,26.10
2018-08-04T03:43:14.399Z,26.10
2018-08-04T03:43:46.413Z,26.10
2018-08-04T03:44:18.494Z,26.20
2018-08-04T03:44:50.525Z,26.20
2018-08-04T03:45:22.538Z,26.30
2018-08-04T03:45:54.571Z,26.30
2018-08-04T03:46:26.584Z,26.40
2018-08-04T03:46:58.607Z,26.40
2018-08-04T03:47:30.614Z,26.40
2018-08-04T03:48:02.621Z,26.40
2018-08-04T03:48:34.640Z,26.40
2018-08-04T03:49:06.673Z,26.40
2018-08-04T03:49:38.682Z,26.40
2018-08-04T03:50:10.737Z,26.40
2018-08-04T03:50:42.722Z,26.40
2018-08-04T03:51:14.729Z,26.40
2018-08-04T03:51:46.746Z,26.50
2018-08-04T03:52:18.748Z,26.60
2018-08-04T03:52:50.765Z,26.80
2018-08-04T03:53:55.063Z,26.90
2018-08-04T03:54:27.065Z,26.90
2018-08-04T03:54:59.108Z,26.80
2018-08-04T03:55:31.175Z,26.80
2018-08-04T03:56:03.178Z,26.70
2018-08-04T03:56:35.195Z,26.70
2018-08-04T03:57:07.207Z,26.70
2018-08-04T03:57:39.206Z,26.60
2018-08-04T03:58:11.214Z,26.50
2018-08-04T03:58:43.230Z,26.50
2018-08-04T03:59:15.236Z,26.40
2018-08-04T03:59:47.314Z,26.40
2018-08-04T04:00:19.266Z,26.30
2018-08-04T04:00:51.329Z,26.30
2018-08-04T04:01:23.344Z,26.20
2018-08-04T04:01:55.350Z,26.20
2018-08-04T04:02:27.371Z,26.20
2018-08-04T04:02:59.402Z,26.20
2018-08-04T04:03:31.415Z,26.20
2018-08-04T04:04:03.446Z,26.20
2018-08-04T04:04:35.470Z,26.30
2018-08-04T04:05:07.512Z,26.20
2018-08-04T04:05:39.516Z,26.20
2018-08-04T04:06:11.527Z,26.20
2018-08-04T04:06:43.588Z,26.20
2018-08-04T04:07:15.570Z,26.20
2018-08-04T04:07:47.589Z,26.20
2018-08-04T04:08:19.618Z,26.20
2018-08-04T04:08:51.636Z,26.20
2018-08-04T04:09:23.663Z,26.20
2018-08-04T04:09:55.666Z,26.20
2018-08-04T04:10:27.681Z,26.20
2018-08-04T04:10:59.698Z,26.20
2018-08-04T04:11:31.707Z,26.30
2018-08-04T04:12:03.730Z,26.30
2018-08-04T04:12:35.762Z,26.30
2018-08-04T04:13:07.761Z,26.30
2018-08-04T04:13:39.766Z,26.30
2018-08-04T04:14:11.789Z,26.30
2018-08-04T04:14:43.797Z,26.20
2018-08-04T04:15:15.795Z,26.20
2018-08-04T04:15:47.810Z,26.20
2018-08-04T04:16:19.831Z,26.20
2018-08-04T04:16:52.009Z,26.20
2018-08-04T04:17:24.030Z,26.20
2018-08-04T04:17:56.043Z,26.20
2018-08-04T04:18:28.050Z,26.20
2018-08-04T04:19:00.076Z,26.20
2018-08-04T04:19:32.075Z,26.20
2018-08-04T04:20:04.084Z,26.20
2018-08-04T04:20:36.095Z,26.20
2018-08-04T04:21:08.105Z,26.20
2018-08-04T04:21:40.119Z,26.20
2018-08-04T04:22:12.123Z,26.20
2018-08-04T04:22:44.161Z,26.20
2018-08-04T04:23:16.178Z,26.20
2018-08-04T04:23:48.187Z,26.30
2018-08-04T04:24:20.215Z,26.30
2018-08-04T04:24:52.257Z,26.30
2018-08-04T04:25:24.273Z,26.30
2018-08-04T04:25:56.290Z,26.50
2018-08-04T04:26:28.303Z,26.60
2018-08-04T04:27:00.318Z,26.70
2018-08-04T04:27:32.331Z,26.60
2018-08-04T04:28:04.357Z,26.60
2018-08-04T04:28:36.371Z,26.60
2018-08-04T04:29:08.393Z,26.60
2018-08-04T04:29:40.394Z,26.60
2018-08-04T04:30:12.409Z,26.70
2018-08-04T04:30:44.412Z,26.80
2018-08-04T04:31:16.499Z,26.70
2018-08-04T04:31:48.496Z,26.60
2018-08-04T04:32:20.506Z,26.50
2018-08-04T04:32:52.774Z,26.40
2018-08-04T04:33:24.782Z,26.50
2018-08-04T04:33:56.806Z,26.40
2018-08-04T04:34:28.817Z,26.30
2018-08-04T04:35:00.846Z,26.30
2018-08-04T04:35:32.856Z,26.30
2018-08-04T04:36:04.865Z,26.30
2018-08-04T04:36:36.888Z,26.30
2018-08-04T04:37:08.915Z,26.20
2018-08-04T04:37:40.935Z,26.20
2018-08-04T04:38:12.965Z,26.20
2018-08-04T04:38:44.979Z,26.10
2018-08-04T04:39:16.985Z,26.10
2018-08-04T04:39:48.999Z,26.10
2018-08-04T04:40:21.010Z,26.00
2018-08-04T04:40:53.037Z,26.10
2018-08-04T04:41:25.059Z,26.10
2018-08-04T04:41:57.066Z,26.10
2018-08-04T04:42:29.089Z,26.00
2018-08-04T04:43:01.108Z,26.00
2018-08-04T04:43:33.114Z,26.00
2018-08-04T04:44:05.137Z,26.00
2018-08-04T04:44:37.146Z,26.00
2018-08-04T04:45:09.157Z,25.90
2018-08-04T04:45:41.165Z,25.90
2018-08-04T04:46:13.178Z,25.90
2018-08-04T04:46:45.189Z,25.90
2018-08-04T04:47:17.194Z,25.90
2018-08-04T04:47:49.208Z,25.90
2018-08-04T04:48:21.252Z,25.80
2018-08-04T04:48:53.269Z,25.80
2018-08-04T04:49:25.271Z,25.90
2018-08-04T04:49:57.290Z,25.90
2018-08-04T04:50:29.379Z,25.90
2018-08-04T04:51:01.392Z,25.90
2018-08-04T04:51:33.403Z,25.90
2018-08-04T04:52:05.416Z,25.90
2018-08-04T04:52:37.431Z,25.90
2018-08-04T04:53:09.444Z,25.90
2018-08-04T04:53:41.459Z,25.90
2018-08-04T04:54:13.515Z,25.90
2018-08-04T04:54:45.520Z,25.90
2018-08-04T04:55:17.563Z,25.90
2018-08-04T04:55:49.539Z,25.90
2018-08-04T04:56:21.550Z,26.00
2018-08-04T04:56:53.554Z,26.00
2018-08-04T04:57:25.577Z,26.00
2018-08-04T04:57:57.582Z,26.00
2018-08-04T04:58:29.595Z,26.10
2018-08-04T04:59:01.617Z,26.00
2018-08-04T04:59:33.640Z,26.00
2018-08-04T05:00:05.645Z,26.00
2018-08-04T05:00:37.662Z,26.10
2018-08-04T05:01:09.685Z,26.10
2018-08-04T05:01:41.687Z,26.10
2018-08-04T05:02:13.722Z,26.10
2018-08-04T05:02:45.731Z,26.10
2018-08-04T05:03:17.742Z,26.00
2018-08-04T05:03:49.756Z,25.90
2018-08-04T05:04:21.800Z,25.90
2018-08-04T05:04:53.903Z,25.90
2018-08-04T05:05:25.929Z,25.90
2018-08-04T05:05:57.939Z,25.90
2018-08-04T05:06:29.992Z,25.90
2018-08-04T05:07:02.006Z,25.90
2018-08-04T05:07:34.033Z,25.90
2018-08-04T05:08:06.079Z,25.90
2018-08-04T05:08:38.181Z,25.90
2018-08-04T05:09:10.169Z,25.90
2018-08-04T05:09:42.402Z,25.90
2018-08-04T05:10:14.427Z,25.90
2018-08-04T05:10:46.399Z,25.90
2018-08-04T05:11:18.412Z,25.90
2018-08-04T05:11:50.425Z,25.90
2018-08-04T05:12:22.445Z,25.90
2018-08-04T05:12:54.459Z,25.90
2018-08-04T05:13:26.545Z,25.90
2018-08-04T05:13:58.478Z,25.90
2018-08-04T05:14:30.507Z,26.00
2018-08-04T05:15:02.508Z,26.00
2018-08-04T05:15:34.536Z,26.00
2018-08-04T05:16:06.555Z,26.00
2018-08-04T05:16:38.585Z,26.00
2018-08-04T05:17:10.589Z,26.00
2018-08-04T05:17:42.620Z,26.00
2018-08-04T05:18:14.632Z,26.00
2018-08-04T05:18:46.661Z,25.90
2018-08-04T05:19:18.717Z,26.00
2018-08-04T05:19:50.742Z,26.00
2018-08-04T05:20:22.755Z,26.00
2018-08-04T05:20:54.759Z,25.90
2018-08-04T05:21:26.789Z,25.90
2018-08-04T05:21:58.819Z,26.00
2018-08-04T05:22:30.842Z,25.90
2018-08-04T05:23:02.856Z,25.90
2018-08-04T05:23:34.854Z,25.90
2018-08-04T05:24:06.970Z,25.90
2018-08-04T05:24:38.937Z,25.90
2018-08-04T05:25:10.968Z,25.90
2018-08-04T05:25:42.973Z,25.90
2018-08-04T05:26:15.006Z,25.90
2018-08-04T05:26:47.028Z,25.90
2018-08-04T05:27:19.029Z,25.90
2018-08-04T05:27:51.047Z,25.90
2018-08-04T05:28:23.059Z,25.90
2018-08-04T05:28:55.068Z,25.90
2018-08-04T05:29:27.078Z,25.90
2018-08-04T05:29:59.090Z,25.90
2018-08-04T05:30:31.131Z,25.90
2018-08-04T05:31:03.171Z,25.90
2018-08-04T05:31:35.192Z,25.90
2018-08-04T05:32:07.263Z,25.90
2018-08-04T05:32:39.236Z,25.90
2018-08-04T05:33:11.267Z,25.90
2018-08-04T05:33:43.285Z,25.90
2018-08-04T05:34:15.290Z,25.90
2018-08-04T05:34:47.325Z,25.90
2018-08-04T05:35:19.355Z,25.90
2018-08-04T05:35:51.355Z,26.00
2018-08-04T05:36:23.390Z,26.00
2018-08-04T05:36:55.420Z,26.00
2018-08-04T05:37:27.485Z,26.00
2018-08-04T05:37:59.485Z,25.90
2018-08-04T05:38:31.498Z,25.90
2018-08-04T05:39:03.525Z,26.00
2018-08-04T05:39:35.554Z,25.90
2018-08-04T05:40:07.571Z,25.90
2018-08-04T05:40:39.597Z,26.00
2018-08-04T05:41:11.666Z,25.90
2018-08-04T05:41:43.684Z,25.90
2018-08-04T05:42:15.691Z,26.00
2018-08-04T05:42:47.698Z,25.90
2018-08-04T05:43:19.757Z,26.00
2018-08-04T05:43:51.722Z,26.10
2018-08-04T05:44:23.726Z,26.00
2018-08-04T05:44:55.735Z,26.00
2018-08-04T05:45:27.746Z,26.00
2018-08-04T05:45:59.761Z,26.00
2018-08-04T05:46:31.813Z,26.00
2018-08-04T05:47:03.837Z,26.00
2018-08-04T05:47:35.842Z,26.00
2018-08-04T05:48:07.851Z,26.00
2018-08-04T05:48:39.863Z,26.00
2018-08-04T05:49:11.883Z,26.00
2018-08-04T05:49:43.893Z,26.00
2018-08-04T05:50:15.901Z,26.00
2018-08-04T05:50:47.926Z,26.10
2018-08-04T05:51:19.934Z,26.10
2018-08-04T05:51:51.956Z,26.10
2018-08-04T05:52:23.965Z,26.10
2018-08-04T05:52:55.998Z,26.20
2018-08-04T05:53:28.031Z,26.20
2018-08-04T05:54:00.197Z,26.10
2018-08-04T05:54:32.216Z,26.20
2018-08-04T05:55:04.234Z,26.10
2018-08-04T05:55:36.257Z,26.10
2018-08-04T05:56:08.265Z,26.10
2018-08-04T05:56:40.275Z,26.10
2018-08-04T05:57:12.286Z,26.10
2018-08-04T05:57:44.309Z,26.10
2018-08-04T05:58:16.325Z,26.10
2018-08-04T05:58:48.348Z,26.10
2018-08-04T05:59:20.351Z,26.00
2018-08-04T05:59:52.363Z,26.00
2018-08-04T06:00:24.380Z,25.90
2018-08-04T06:00:56.394Z,26.00
2018-08-04T06:01:28.430Z,26.00
2018-08-04T06:02:00.441Z,26.00
2018-08-04T06:02:32.469Z,26.00
2018-08-04T06:03:04.477Z,26.00
2018-08-04T06:03:36.482Z,26.10
2018-08-04T06:04:08.507Z,26.00
2018-08-04T06:04:40.509Z,26.00
2018-08-04T06:05:12.521Z,26.00
2018-08-04T06:05:44.544Z,26.10
2018-08-04T06:06:16.558Z,26.10
2018-08-04T06:06:48.569Z,26.10
2018-08-04T06:07:20.578Z,26.10
2018-08-04T06:07:52.631Z,26.10
2018-08-04T06:08:24.651Z,26.10
2018-08-04T06:08:56.677Z,26.00
2018-08-04T06:09:28.688Z,26.10
2018-08-04T06:10:00.797Z,26.10
2018-08-04T06:10:32.824Z,26.10
2018-08-04T06:11:04.840Z,26.10
2018-08-04T06:11:36.859Z,26.10
2018-08-04T06:12:08.880Z,26.10
2018-08-04T06:12:40.893Z,26.20
2018-08-04T06:13:12.898Z,26.20
2018-08-04T06:13:44.955Z,26.20
2018-08-04T06:14:16.987Z,26.30
2018-08-04T06:14:48.993Z,26.40
2018-08-04T06:15:20.999Z,26.40
2018-08-04T06:15:53.016Z,26.60
2018-08-04T06:16:25.019Z,26.70
2018-08-04T06:16:57.039Z,26.70
2018-08-04T06:17:29.070Z,26.80
2018-08-04T06:18:01.091Z,26.80
2018-08-04T06:18:33.116Z,26.90
2018-08-04T06:19:05.126Z,27.00
2018-08-04T06:19:37.140Z,27.00
2018-08-04T06:20:09.146Z,27.00
2018-08-04T06:20:41.166Z,26.90
2018-08-04T06:21:13.177Z,26.80
2018-08-04T06:21:45.206Z,26.70
2018-08-04T06:22:17.225Z,26.70
2018-08-04T06:22:49.248Z,26.70
2018-08-04T06:23:21.257Z,26.70
2018-08-04T06:23:53.271Z,26.60
2018-08-04T06:24:25.270Z,26.70
2018-08-04T06:24:57.295Z,26.70
2018-08-04T06:25:29.375Z,26.80
2018-08-04T06:26:01.391Z,26.80
2018-08-04T06:26:33.401Z,26.90
2018-08-04T06:27:05.414Z,27.00
2018-08-04T06:27:37.431Z,27.10
2018-08-04T06:28:09.517Z,27.10
2018-08-04T06:28:41.482Z,27.10
2018-08-04T06:29:13.546Z,27.10
2018-08-04T06:29:45.486Z,27.10
2018-08-04T06:30:17.521Z,27.10
2018-08-04T06:30:49.528Z,27.10
2018-08-04T06:31:21.533Z,27.10
2018-08-04T06:31:53.629Z,27.10
2018-08-04T06:32:25.610Z,27.10
2018-08-04T06:32:57.614Z,27.00
2018-08-04T06:33:29.625Z,27.00
2018-08-04T06:34:01.671Z,27.00
2018-08-04T06:34:33.710Z,27.00
2018-08-04T06:35:05.732Z,27.10
2018-08-04T06:35:37.734Z,27.10
2018-08-04T06:36:09.793Z,27.20
2018-08-04T06:36:41.802Z,27.20
2018-08-04T06:37:13.822Z,27.20
2018-08-04T06:37:45.847Z,27.20
2018-08-04T06:38:17.845Z,27.10
2018-08-04T06:38:49.857Z,27.00
2018-08-04T06:39:21.875Z,26.90
2018-08-04T06:39:53.993Z,26.80
2018-08-04T06:40:25.977Z,26.70
2018-08-04T06:40:57.996Z,26.60
2018-08-04T06:41:30.032Z,26.60
2018-08-04T06:42:02.030Z,26.50
2018-08-04T06:42:34.102Z,26.50
2018-08-04T06:43:06.126Z,26.50
2018-08-04T06:43:38.126Z,26.50
2018-08-04T06:44:10.128Z,26.50
2018-08-04T06:44:42.137Z,26.50
2018-08-04T06:45:14.151Z,26.50
2018-08-04T06:45:46.162Z,26.50
2018-08-04T06:46:18.175Z,26.60
2018-08-04T06:46:50.181Z,26.60
2018-08-04T06:47:22.193Z,26.60
2018-08-04T06:47:54.214Z,26.70
2018-08-04T06:48:26.234Z,26.80
2018-08-04T06:48:58.238Z,26.90
2018-08-04T06:49:30.257Z,27.00
2018-08-04T06:50:02.284Z,27.00
2018-08-04T06:50:34.294Z,27.10
2018-08-04T06:51:06.321Z,27.10
2018-08-04T06:51:38.335Z,27.20
2018-08-04T06:52:10.347Z,27.20
2018-08-04T06:52:42.413Z,27.20
2018-08-04T06:53:14.386Z,27.20
2018-08-04T06:53:46.401Z,27.10
2018-08-04T06:54:18.430Z,27.10